createdAt,value
2019-04-25T00:01:11.594Z,63.77
2019-04-25T00:03:42.554Z,63.76
2019-04-25T00:06:13.397Z,63.87
2019-04-25T00:08:44.043Z,64.25
2019-04-25T00:11:13.748Z,64.16
2019-04-25T00:13:44.068Z,64.30
2019-04-25T00:16:14.579Z,64.55
2019-04-25T00:18:44.260Z,64.39
2019-04-25T00:21:21.988Z,64.33
2019-04-25T00:23:56.254Z,64.55
2019-04-25T00:26:44.019Z,64.79
2019-04-25T00:29:13.263Z,65.33
2019-04-25T00:31:45.680Z,65.60
2019-04-25T00:34:15.420Z,65.51
2019-04-25T00:36:45.618Z,65.42
2019-04-25T00:39:15.216Z,65.38
2019-04-25T00:41:46.140Z,65.48
2019-04-25T00:44:15.873Z,65.61
2019-04-25T00:46:48.598Z,65.86
2019-04-25T00:49:16.567Z,66.52
2019-04-25T00:51:46.175Z,66.83
2019-04-25T00:54:15.595Z,66.42
2019-04-25T00:56:47.767Z,66.31
2019-04-25T00:59:25.131Z,66.83
2019-04-25T01:02:07.543Z,67.79
2019-04-25T01:04:36.177Z,68.23
2019-04-25T01:07:05.716Z,67.89
2019-04-25T01:09:35.177Z,67.60
2019-04-25T01:12:04.714Z,67.24
2019-04-25T01:14:34.324Z,67.55
2019-04-25T01:17:03.897Z,68.42
2019-04-25T01:19:34.462Z,68.20
2019-04-25T01:22:04.277Z,68.67
2019-04-25T01:24:34.049Z,68.93
2019-04-25T01:27:05.329Z,69.21
2019-04-25T01:29:34.893Z,69.20
2019-04-25T01:32:06.540Z,68.86
2019-04-25T01:35:00.084Z,69.47
2019-04-25T01:37:43.716Z,69.85
2019-04-25T01:40:38.305Z,70.18
2019-04-25T01:43:26.302Z,70.28
2019-04-25T01:45:56.838Z,70.33
2019-04-25T01:48:26.342Z,70.29
2019-04-25T01:50:56.517Z,70.48
2019-04-25T01:53:26.102Z,70.46
2019-04-25T01:56:01.564Z,70.37
2019-04-25T01:58:26.913Z,70.72
2019-04-25T02:00:57.324Z,70.94
2019-04-25T02:03:27.369Z,71.23
2019-04-25T02:05:57.304Z,71.36
2019-04-25T02:08:26.901Z,71.37
2019-04-25T02:11:07.406Z,71.46
2019-04-25T02:13:37.027Z,71.42
2019-04-25T02:16:08.159Z,71.67
2019-04-25T02:18:37.751Z,72.04
2019-04-25T02:21:07.591Z,71.88
2019-04-25T02:23:37.071Z,71.96
2019-04-25T02:26:15.663Z,72.05
2019-04-25T02:28:37.893Z,71.54
2019-04-25T02:31:08.873Z,71.52
2019-04-25T02:33:38.584Z,71.29
2019-04-25T02:36:08.878Z,71.06
2019-04-25T02:38:38.484Z,70.94
2019-04-25T02:41:09.059Z,70.70
2019-04-25T02:43:38.659Z,70.73
2019-04-25T02:46:37.107Z,70.53
2019-04-25T02:49:40.146Z,70.14
2019-04-25T02:52:31.513Z,70.19
2019-04-25T02:55:02.119Z,70.70
2019-04-25T02:57:34.415Z,70.99
2019-04-25T03:00:06.741Z,71.04
2019-04-25T03:02:36.770Z,71.15
2019-04-25T03:05:09.574Z,71.24
2019-04-25T03:07:37.362Z,71.35
2019-04-25T03:10:09.813Z,71.55
2019-04-25T03:12:39.491Z,71.36
2019-04-25T03:15:10.293Z,71.27
2019-04-25T03:17:40.122Z,71.58
2019-04-25T03:20:24.417Z,72.08
2019-04-25T03:22:54.803Z,72.39
2019-04-25T03:25:24.940Z,72.76
2019-04-25T03:27:54.513Z,72.97
2019-04-25T03:30:25.577Z,73.12
2019-04-25T03:32:56.192Z,73.09
2019-04-25T03:35:25.850Z,73.00
2019-04-25T03:37:55.348Z,72.90
2019-04-25T03:40:24.817Z,72.96
2019-04-25T03:42:54.319Z,73.13
2019-04-25T03:45:23.813Z,73.15
2019-04-25T03:47:53.319Z,73.37
2019-04-25T03:50:23.269Z,73.60
2019-04-25T03:52:54.035Z,73.83
2019-04-25T03:55:24.128Z,73.85
2019-04-25T03:57:53.988Z,73.91
2019-04-25T04:00:24.099Z,73.86
2019-04-25T04:02:55.382Z,73.52
2019-04-25T04:05:24.953Z,73.50
2019-04-25T04:07:54.451Z,73.60
2019-04-25T04:10:23.933Z,73.57
2019-04-25T04:12:54.256Z,73.46
2019-04-25T04:15:25.069Z,73.39
2019-04-25T04:18:01.679Z,73.27
2019-04-25T04:20:41.472Z,73.10
2019-04-25T04:23:33.223Z,72.97
2019-04-25T04:26:03.299Z,72.69
2019-04-25T04:28:33.748Z,71.89
2019-04-25T04:31:03.727Z,71.44
2019-04-25T04:33:34.621Z,70.89
2019-04-25T04:36:04.162Z,70.00
2019-04-25T04:38:34.206Z,69.37
2019-04-25T04:41:04.075Z,68.88
2019-04-25T04:43:34.207Z,68.87
2019-04-25T04:46:04.006Z,67.42
2019-04-25T04:48:34.245Z,66.59
2019-04-25T04:51:03.903Z,66.00
2019-04-25T04:53:33.868Z,65.25
2019-04-25T04:56:04.672Z,64.33
2019-04-25T04:58:34.347Z,64.05
2019-04-25T05:01:03.867Z,63.58
2019-04-25T05:03:51.973Z,63.90
2019-04-25T05:06:41.280Z,63.23
2019-04-25T05:09:20.031Z,62.15
2019-04-25T05:11:49.521Z,62.16
2019-04-25T05:14:19.518Z,61.62
2019-04-25T05:16:49.607Z,61.25
2019-04-25T05:19:19.931Z,61.03
2019-04-25T05:21:49.459Z,60.62
2019-04-25T05:24:18.985Z,60.37
2019-04-25T05:26:48.468Z,60.06
2019-04-25T05:29:21.331Z,60.55
2019-04-25T05:31:51.414Z,60.47
2019-04-25T05:34:21.691Z,60.80
2019-04-25T05:36:51.351Z,61.15
2019-04-25T05:39:20.840Z,60.78
2019-04-25T05:42:16.271Z,60.48
2019-04-25T05:44:46.346Z,60.46
2019-04-25T05:47:16.272Z,59.71
2019-04-25T05:49:46.583Z,59.32
2019-04-25T05:52:16.114Z,58.84
2019-04-25T05:54:45.660Z,58.65
2019-04-25T05:57:16.535Z,58.82
2019-04-25T05:59:46.170Z,58.45
2019-04-25T06:02:15.655Z,58.54
2019-04-25T06:04:45.166Z,58.63
2019-04-25T06:07:14.662Z,58.58
2019-04-25T06:09:52.093Z,58.30
2019-04-25T06:12:45.031Z,58.56
2019-04-25T06:15:14.781Z,58.58
2019-04-25T06:18:03.882Z,58.24
2019-04-25T06:20:35.975Z,58.29
2019-04-25T06:23:18.882Z,57.94
2019-04-25T06:25:48.447Z,57.49
2019-04-25T06:28:20.333Z,57.38
2019-04-25T06:30:51.133Z,57.58
2019-04-25T06:33:21.325Z,57.52
2019-04-25T06:35:50.894Z,57.36
2019-04-25T06:38:21.382Z,57.25
2019-04-25T06:40:51.125Z,57.12
2019-04-25T06:43:20.585Z,57.08
2019-04-25T06:46:08.187Z,57.23
2019-04-25T06:48:56.614Z,56.88
2019-04-25T06:51:46.046Z,56.70
2019-04-25T06:54:15.145Z,56.53
2019-04-25T06:56:44.642Z,56.56
2019-04-25T06:59:14.130Z,56.27
2019-04-25T07:01:44.005Z,55.93
2019-04-25T07:04:14.099Z,55.85
2019-04-25T07:06:45.496Z,55.71
2019-04-25T07:09:15.179Z,55.56
2019-04-25T07:11:44.746Z,55.19
2019-04-25T07:14:14.335Z,54.78
2019-04-25T07:16:44.228Z,54.51
2019-04-25T07:19:20.326Z,53.98
2019-04-25T07:21:50.358Z,53.61
2019-04-25T07:24:20.274Z,53.49
2019-04-25T07:27:08.047Z,53.46
2019-04-25T07:29:58.708Z,53.38
2019-04-25T07:32:38.843Z,53.39
2019-04-25T07:35:09.367Z,53.25
2019-04-25T07:37:41.503Z,52.94
2019-04-25T07:40:10.908Z,53.11
2019-04-25T07:42:40.404Z,52.60
2019-04-25T07:45:11.155Z,52.27
2019-04-25T07:47:40.901Z,52.10
2019-04-25T07:50:10.762Z,51.77
2019-04-25T07:52:40.307Z,51.93
2019-04-25T07:55:09.985Z,51.69
2019-04-25T07:57:39.504Z,51.67
2019-04-25T08:00:14.634Z,51.53
2019-04-25T08:02:44.136Z,50.80
2019-04-25T08:05:16.892Z,50.57
2019-04-25T08:07:46.429Z,50.26
2019-04-25T08:10:17.241Z,50.16
2019-04-25T08:12:47.484Z,49.65
2019-04-25T08:15:30.206Z,49.69
2019-04-25T08:18:09.749Z,49.76
2019-04-25T08:20:40.077Z,49.20
2019-04-25T08:23:09.774Z,49.35
2019-04-25T08:25:40.564Z,49.21
2019-04-25T08:28:10.257Z,49.39
2019-04-25T08:30:39.757Z,48.79
2019-04-25T08:33:09.306Z,48.57
2019-04-25T08:35:38.931Z,48.76
2019-04-25T08:38:08.467Z,48.34
2019-04-25T08:40:38.997Z,47.85
2019-04-25T08:43:08.571Z,47.51
2019-04-25T08:45:39.776Z,47.58
2019-04-25T08:48:09.522Z,46.99
2019-04-25T08:50:54.232Z,46.89
2019-04-25T08:53:26.973Z,46.39
2019-04-25T08:56:07.240Z,46.44
2019-04-25T08:59:06.211Z,46.66
2019-04-25T09:01:58.087Z,46.27
2019-04-25T09:04:38.831Z,45.94
2019-04-25T09:07:08.688Z,45.72
2019-04-25T09:09:39.023Z,45.71
2019-04-25T09:12:08.648Z,45.17
2019-04-25T09:14:38.968Z,45.35
2019-04-25T09:17:08.601Z,44.92
2019-04-25T09:19:38.466Z,44.96
2019-04-25T09:22:08.058Z,44.15
2019-04-25T09:24:38.749Z,43.35
2019-04-25T09:27:08.541Z,43.85
2019-04-25T09:29:38.907Z,43.42
2019-04-25T09:32:08.477Z,43.49
2019-04-25T09:34:38.155Z,42.59
2019-04-25T09:37:07.589Z,41.87
2019-04-25T09:40:02.075Z,42.28
2019-04-25T09:42:31.674Z,41.99
2019-04-25T09:45:15.264Z,42.39
2019-04-25T09:47:46.036Z,42.72
2019-04-25T09:50:33.958Z,42.11
2019-04-25T09:53:04.534Z,42.71
2019-04-25T09:55:54.231Z,42.14
2019-04-25T09:58:48.334Z,41.87
2019-04-25T10:01:17.251Z,41.59
2019-04-25T10:03:47.811Z,42.14
2019-04-25T10:06:19.414Z,41.36
2019-04-25T10:08:48.947Z,39.71
2019-04-25T10:11:18.440Z,39.60
2019-04-25T10:14:14.609Z,39.66
2019-04-25T10:16:44.701Z,39.87
2019-04-25T10:19:15.620Z,39.87
2019-04-25T10:21:45.257Z,39.41
2019-04-25T10:24:14.735Z,38.67
2019-04-25T10:26:46.395Z,38.90
2019-04-25T10:29:15.921Z,38.49
2019-04-25T10:31:45.572Z,38.39
2019-04-25T10:34:15.131Z,38.42
2019-04-25T10:36:45.409Z,38.79
2019-04-25T10:39:15.052Z,38.86
2019-04-25T10:41:46.487Z,37.95
2019-04-25T10:44:16.125Z,38.33
2019-04-25T10:46:47.239Z,38.27
2019-04-25T10:49:16.922Z,38.24
2019-04-25T10:51:46.446Z,37.23
2019-04-25T10:54:15.928Z,37.25
2019-04-25T10:56:47.110Z,36.96
2019-04-25T10:59:16.776Z,36.90
2019-04-25T11:01:47.287Z,36.88
2019-04-25T11:04:31.800Z,36.91
2019-04-25T11:07:01.350Z,37.27
2019-04-25T11:09:30.938Z,36.91
2019-04-25T11:12:00.495Z,36.68
2019-04-25T11:14:31.822Z,36.59
2019-04-25T11:17:01.734Z,36.71
2019-04-25T11:19:31.336Z,36.41
2019-04-25T11:22:00.938Z,36.07
2019-04-25T11:24:30.547Z,35.93
2019-04-25T11:27:00.062Z,36.00
2019-04-25T11:29:29.694Z,36.18
2019-04-25T11:31:59.303Z,35.57
2019-04-25T11:34:28.923Z,35.23
2019-04-25T11:36:58.565Z,35.20
2019-04-25T11:39:56.918Z,35.14
2019-04-25T11:42:26.864Z,34.91
2019-04-25T11:44:56.700Z,34.08
2019-04-25T11:47:26.581Z,34.12
2019-04-25T11:49:56.431Z,33.98
2019-04-25T11:52:28.206Z,33.97
2019-04-25T11:54:57.575Z,34.15
2019-04-25T11:57:28.588Z,34.41
2019-04-25T12:00:00.515Z,34.16
2019-04-25T12:02:30.179Z,34.37
2019-04-25T12:05:01.707Z,34.37
2019-04-25T12:07:31.383Z,34.56
2019-04-25T12:10:00.956Z,34.30
2019-04-25T12:12:30.975Z,34.50
2019-04-25T12:15:00.540Z,34.41
2019-04-25T12:17:30.269Z,33.97
2019-04-25T12:20:00.206Z,33.94
2019-04-25T12:22:29.851Z,34.19
2019-04-25T12:24:59.502Z,34.20
2019-04-25T12:27:29.177Z,34.13
2019-04-25T12:29:59.515Z,33.70
2019-04-25T12:32:35.069Z,33.45
2019-04-25T12:35:04.074Z,32.92
2019-04-25T12:37:35.091Z,33.00
2019-04-25T12:40:06.492Z,32.80
2019-04-25T12:42:36.251Z,32.87
2019-04-25T12:45:24.171Z,33.00
2019-04-25T12:47:56.597Z,32.93
2019-04-25T12:50:25.154Z,33.48
2019-04-25T12:52:55.973Z,33.63
2019-04-25T12:55:25.694Z,34.08
2019-04-25T12:57:56.488Z,34.18
2019-04-25T13:00:27.013Z,34.75
2019-04-25T13:02:56.710Z,33.91
2019-04-25T13:05:26.188Z,33.89
2019-04-25T13:07:57.420Z,34.04
2019-04-25T13:10:26.905Z,34.41
2019-04-25T13:12:56.450Z,34.36
2019-04-25T13:15:27.062Z,34.22
2019-04-25T13:17:57.076Z,34.11
2019-04-25T13:20:26.562Z,34.36
2019-04-25T13:22:56.235Z,34.57
2019-04-25T13:25:25.922Z,34.74
2019-04-25T13:28:20.604Z,34.70
2019-04-25T13:31:12.350Z,34.28
2019-04-25T13:34:02.016Z,34.87
2019-04-25T13:36:34.706Z,34.61
2019-04-25T13:39:07.578Z,34.96
2019-04-25T13:41:37.096Z,34.51
2019-04-25T13:44:07.148Z,34.66
2019-04-25T13:46:36.809Z,34.46
2019-04-25T13:49:06.679Z,34.70
2019-04-25T13:51:36.205Z,34.80
2019-04-25T13:54:06.091Z,34.69
2019-04-25T13:56:40.311Z,34.76
2019-04-25T13:59:07.568Z,34.71
2019-04-25T14:01:37.089Z,34.17
2019-04-25T14:04:07.220Z,34.00
2019-04-25T14:06:36.995Z,33.59
2019-04-25T14:09:13.448Z,33.57
2019-04-25T14:11:44.126Z,33.43
2019-04-25T14:14:13.770Z,33.92
2019-04-25T14:17:17.541Z,34.12
2019-04-25T14:20:04.775Z,34.30
2019-04-25T14:22:34.284Z,34.18
2019-04-25T14:25:04.071Z,34.25
2019-04-25T14:27:34.088Z,34.59
2019-04-25T14:30:04.255Z,34.26
2019-04-25T14:32:35.097Z,34.28
2019-04-25T14:35:05.051Z,34.27
2019-04-25T14:37:39.479Z,34.46
2019-04-25T14:40:06.822Z,34.76
2019-04-25T14:42:36.430Z,35.19
2019-04-25T14:45:06.463Z,35.30
2019-04-25T14:47:36.001Z,35.46
2019-04-25T14:50:05.800Z,35.60
2019-04-25T14:52:35.669Z,36.53
2019-04-25T14:55:19.633Z,36.90
2019-04-25T14:57:49.154Z,37.01
2019-04-25T15:00:26.422Z,37.52
2019-04-25T15:02:55.912Z,38.00
2019-04-25T15:05:26.515Z,38.51
2019-04-25T15:07:56.033Z,39.37
2019-04-25T15:10:26.491Z,39.84
2019-04-25T15:12:56.328Z,40.36
2019-04-25T15:15:26.614Z,41.26
2019-04-25T15:17:56.404Z,42.42
2019-04-25T15:20:26.211Z,43.64
2019-04-25T15:22:57.054Z,44.22
2019-04-25T15:25:27.450Z,44.18
2019-04-25T15:27:56.962Z,44.73
2019-04-25T15:30:29.534Z,44.68
2019-04-25T15:32:59.146Z,47.69
2019-04-25T15:35:38.352Z,48.24
2019-04-25T15:38:13.209Z,46.11
2019-04-25T15:40:53.144Z,45.55
2019-04-25T15:43:29.281Z,46.23
2019-04-25T15:46:16.555Z,46.07
2019-04-25T15:48:46.122Z,46.37
2019-04-25T15:51:15.624Z,45.75
2019-04-25T15:53:45.126Z,45.34
2019-04-25T15:56:14.630Z,43.82
2019-04-25T15:58:44.112Z,44.12
2019-04-25T16:01:13.623Z,47.91
2019-04-25T16:03:43.136Z,49.53
2019-04-25T16:06:12.822Z,48.91
2019-04-25T16:08:42.406Z,49.51
2019-04-25T16:11:11.937Z,48.02
2019-04-25T16:13:41.422Z,47.51
2019-04-25T16:16:10.932Z,48.30
2019-04-25T16:18:41.180Z,49.27
2019-04-25T16:21:10.839Z,49.38
2019-04-25T16:23:40.358Z,48.81
2019-04-25T16:26:09.939Z,49.53
2019-04-25T16:28:39.805Z,49.60
2019-04-25T16:31:11.055Z,49.76
2019-04-25T16:33:40.781Z,50.59
2019-04-25T16:36:10.330Z,50.51
2019-04-25T16:38:39.822Z,51.07
2019-04-25T16:41:10.732Z,51.64
2019-04-25T16:43:43.715Z,51.79
2019-04-25T16:46:14.293Z,51.77
2019-04-25T16:48:43.819Z,52.39
2019-04-25T16:51:14.425Z,52.85
2019-04-25T16:53:43.928Z,53.04
2019-04-25T16:56:13.701Z,53.21
2019-04-25T16:58:43.292Z,53.18
2019-04-25T17:01:14.312Z,53.49
2019-04-25T17:03:44.659Z,53.36
2019-04-25T17:06:14.415Z,53.44
2019-04-25T17:08:44.034Z,53.94
2019-04-25T17:11:13.686Z,53.60
2019-04-25T17:13:49.382Z,53.64
2019-04-25T17:16:37.926Z,53.18
2019-04-25T17:19:10.951Z,52.93
2019-04-25T17:21:40.626Z,52.75
2019-04-25T17:24:10.150Z,52.82
2019-04-25T17:26:39.699Z,52.98
2019-04-25T17:29:12.790Z,53.04
2019-04-25T17:32:01.487Z,53.48
2019-04-25T17:34:48.696Z,53.58
2019-04-25T17:37:24.647Z,53.74
2019-04-25T17:40:00.606Z,53.83
2019-04-25T17:42:30.910Z,53.97
2019-04-25T17:45:00.603Z,54.16
2019-04-25T17:47:30.340Z,54.20
2019-04-25T17:49:59.820Z,54.29
2019-04-25T17:52:29.359Z,54.12
2019-04-25T17:54:58.875Z,54.02
2019-04-25T17:57:28.438Z,53.91
2019-04-25T17:59:57.948Z,54.07
2019-04-25T18:02:28.084Z,54.01
2019-04-25T18:04:57.569Z,54.43
2019-04-25T18:07:27.067Z,53.99
2019-04-25T18:09:56.743Z,54.03
2019-04-25T18:12:26.488Z,54.05
2019-04-25T18:14:57.704Z,53.92
2019-04-25T18:17:27.269Z,54.01
2019-04-25T18:20:05.416Z,53.99
2019-04-25T18:22:56.691Z,54.06
2019-04-25T18:25:51.104Z,53.97
2019-04-25T18:28:32.689Z,53.81
2019-04-25T18:31:02.965Z,53.78
2019-04-25T18:33:32.609Z,53.97
2019-04-25T18:36:18.481Z,53.85
2019-04-25T18:38:57.268Z,53.46
2019-04-25T18:41:35.393Z,53.45
2019-04-25T18:44:06.959Z,53.32
2019-04-25T18:46:40.515Z,53.38
2019-04-25T18:49:10.120Z,53.35
2019-04-25T18:51:40.642Z,53.68
2019-04-25T18:54:29.132Z,53.60
2019-04-25T18:57:06.111Z,53.84
2019-04-25T18:59:55.445Z,53.45
2019-04-25T19:02:49.680Z,53.27
2019-04-25T19:05:41.076Z,52.87
2019-04-25T19:08:10.674Z,52.83
2019-04-25T19:10:40.774Z,53.13
2019-04-25T19:13:12.883Z,53.50
2019-04-25T19:15:43.239Z,53.61
2019-04-25T19:18:12.844Z,53.97
2019-04-25T19:20:43.962Z,54.05
2019-04-25T19:23:13.643Z,54.33
2019-04-25T19:25:43.729Z,54.29
2019-04-25T19:28:13.288Z,54.25
2019-04-25T19:30:43.103Z,54.44
2019-04-25T19:33:12.716Z,54.57
2019-04-25T19:35:42.180Z,55.21
2019-04-25T19:38:11.706Z,54.95
2019-04-25T19:40:49.647Z,55.16
2019-04-25T19:43:29.258Z,55.39
2019-04-25T19:45:58.817Z,55.45
2019-04-25T19:48:28.510Z,55.85
2019-04-25T19:50:57.998Z,56.00
2019-04-25T19:53:27.493Z,56.22
2019-04-25T19:55:56.975Z,56.16
2019-04-25T19:58:26.448Z,56.31
2019-04-25T20:00:56.060Z,56.49
2019-04-25T20:03:49.249Z,56.36
2019-04-25T20:06:17.866Z,56.52
2019-04-25T20:08:52.923Z,56.64
2019-04-25T20:11:28.729Z,56.64
2019-04-25T20:13:58.220Z,56.69
2019-04-25T20:16:29.359Z,56.89
2019-04-25T20:18:58.898Z,57.01
2019-04-25T20:21:28.362Z,56.70
2019-04-25T20:23:57.841Z,56.89
2019-04-25T20:26:27.357Z,56.83
2019-04-25T20:28:56.845Z,57.04
2019-04-25T20:31:26.559Z,57.16
2019-04-25T20:34:05.269Z,57.55
2019-04-25T20:36:27.283Z,57.76
2019-04-25T20:38:56.812Z,57.93
2019-04-25T20:41:26.291Z,58.12
2019-04-25T20:43:55.775Z,58.16
2019-04-25T20:46:25.239Z,58.58
2019-04-25T20:48:54.786Z,58.57
2019-04-25T20:51:24.268Z,58.73
2019-04-25T20:53:53.760Z,58.85
2019-04-25T20:56:23.294Z,58.64
2019-04-25T20:58:53.514Z,58.64
2019-04-25T21:01:23.044Z,58.89
2019-04-25T21:03:52.509Z,58.85
2019-04-25T21:06:32.425Z,59.10
2019-04-25T21:09:02.284Z,59.35
2019-04-25T21:11:31.858Z,59.57
2019-04-25T21:14:19.354Z,59.82
2019-04-25T21:17:02.838Z,60.15
2019-04-25T21:19:34.614Z,59.80
2019-04-25T21:22:04.086Z,60.39
2019-04-25T21:24:33.579Z,60.62
2019-04-25T21:27:03.096Z,60.60
2019-04-25T21:29:32.571Z,61.05
2019-04-25T21:32:02.061Z,61.58
2019-04-25T21:34:31.587Z,62.62
2019-04-25T21:37:02.099Z,63.03
2019-04-25T21:39:55.102Z,63.05
2019-04-25T21:42:34.869Z,63.12
2019-04-25T21:45:05.110Z,63.22
2019-04-25T21:47:34.596Z,63.67
2019-04-25T21:50:04.819Z,63.99
2019-04-25T21:52:34.566Z,64.34
2019-04-25T21:55:04.486Z,64.85
2019-04-25T21:57:34.163Z,65.79
2019-04-25T22:00:08.879Z,66.14
2019-04-25T22:02:36.105Z,66.33
2019-04-25T22:05:06.447Z,66.62
2019-04-25T22:07:36.117Z,67.02
2019-04-25T22:10:07.411Z,67.23
2019-04-25T22:12:36.976Z,67.84
2019-04-25T22:15:09.531Z,68.47
2019-04-25T22:17:39.041Z,68.85
2019-04-25T22:20:09.118Z,69.26
2019-04-25T22:22:38.620Z,69.79
2019-04-25T22:25:08.107Z,70.02
2019-04-25T22:27:37.963Z,70.02
2019-04-25T22:30:09.553Z,70.21
2019-04-25T22:33:01.586Z,70.24
2019-04-25T22:35:49.136Z,70.52
2019-04-25T22:38:18.996Z,70.64
2019-04-25T22:40:48.498Z,70.82
2019-04-25T22:43:20.050Z,71.00
2019-04-25T22:45:49.846Z,71.09
2019-04-25T22:48:26.128Z,71.17
2019-04-25T22:50:55.922Z,71.26
2019-04-25T22:53:26.203Z,71.32
2019-04-25T22:55:56.525Z,71.13
2019-04-25T22:58:26.052Z,71.08
2019-04-25T23:00:55.579Z,71.43
2019-04-25T23:03:33.250Z,71.65
2019-04-25T23:06:02.822Z,71.74
2019-04-25T23:08:33.425Z,72.22
2019-04-25T23:11:02.919Z,72.68
2019-04-25T23:13:32.361Z,73.35
2019-04-25T23:16:02.531Z,74.31
2019-04-25T23:18:33.063Z,74.78
2019-04-25T23:21:02.535Z,73.98
2019-04-25T23:23:32.458Z,73.78
2019-04-25T23:26:29.886Z,73.73
2019-04-25T23:29:00.384Z,73.95
2019-04-25T23:31:31.284Z,74.03
2019-04-25T23:34:01.036Z,73.97
2019-04-25T23:36:30.513Z,73.83
2019-04-25T23:39:00.017Z,73.66
2019-04-25T23:41:29.918Z,73.01
2019-04-25T23:43:59.395Z,72.71
2019-04-25T23:46:29.247Z,72.35
2019-04-25T23:48:58.784Z,72.68
2019-04-25T23:51:28.264Z,72.94
2019-04-25T23:53:58.063Z,72.74
2019-04-25T23:56:27.576Z,71.80
2019-04-25T23:58:57.446Z,71.48
